Time;durP1;ratioP1;P1;durP2;ratioP2;P2;SDS_P1;SDS_P2;PMS_P1;PMS_P2;Temp;Humidity;BMP_temperature;BMP_pressure;BME280_temperature;BME280_humidity;BME280_pressure;Samples;Min_cycle;Max_cycle;Signal;HPM_P1;HPM_P2
2023/06/10 00:00:50;;;;;;;1.58;0.80;;;;;;;18.26;33.63;102334.56;5115848;28;20031;-69
2023/06/10 00:03:16;;;;;;;1.50;0.80;;;;;;;18.29;33.54;102345.03;5117528;27;20024;-68
2023/06/10 00:05:42;;;;;;;1.13;0.85;;;;;;;18.17;33.47;102327.66;5116838;28;20038;-67
2023/06/10 00:08:07;;;;;;;2.25;1.00;;;;;;;18.15;33.64;102346.97;5099092;28;20388;-67
2023/06/10 00:10:38;;;;;;;1.20;0.70;;;;;;;18.17;33.59;102350.28;5116059;28;20449;-68
2023/06/10 00:13:11;;;;;;;1.20;0.80;;;;;;;18.21;33.68;102359.75;5117461;28;20076;-68
2023/06/10 00:15:37;;;;;;;2.10;0.70;;;;;;;17.92;33.83;102346.56;5116990;28;20099;-68
2023/06/10 00:18:04;;;;;;;0.85;0.75;;;;;;;17.96;34.10;102358.72;5117519;28;20049;-67
2023/06/10 00:20:30;;;;;;;2.17;0.60;;;;;;;17.93;34.05;102353.69;5119724;28;20097;-68
2023/06/10 00:22:56;;;;;;;1.45;0.68;;;;;;;17.99;33.99;102367.31;5103142;28;20034;-68
2023/06/10 00:25:22;;;;;;;1.95;0.80;;;;;;;17.86;33.89;102352.84;5117342;28;20049;-68
2023/06/10 00:27:48;;;;;;;1.40;0.90;;;;;;;17.86;33.88;102375.47;5098866;28;20039;-67
2023/06/10 00:30:13;;;;;;;1.60;0.77;;;;;;;17.82;33.91;102368.78;5115462;28;20042;-67
2023/06/10 00:32:39;;;;;;;3.78;0.80;;;;;;;17.71;33.56;102362.00;5115517;28;20080;-67
2023/06/10 00:35:06;;;;;;;1.10;0.70;;;;;;;17.72;33.72;102365.59;5096952;28;20127;-68
2023/06/10 00:37:32;;;;;;;2.17;0.90;;;;;;;17.69;33.49;102369.56;5114295;28;20052;-67
2023/06/10 00:39:58;;;;;;;0.70;0.60;;;;;;;17.68;33.37;102378.78;5114804;28;20084;-68
2023/06/10 00:42:24;;;;;;;0.75;0.60;;;;;;;17.49;33.15;102355.09;5116670;28;20043;-68
2023/06/10 00:44:54;;;;;;;1.10;0.68;;;;;;;17.21;32.77;102315.28;5115053;28;20364;-67
2023/06/10 00:47:20;;;;;;;7.70;0.77;;;;;;;17.50;32.85;102359.50;5116200;28;20031;-68
2023/06/10 00:49:47;;;;;;;2.90;0.70;;;;;;;17.55;32.92;102386.94;5115191;28;20046;-67
2023/06/10 00:52:14;;;;;;;3.15;0.82;;;;;;;17.57;33.08;102387.56;5115287;28;20039;-67
2023/06/10 00:54:40;;;;;;;2.28;0.60;;;;;;;17.48;33.00;102394.22;5115117;28;20023;-68
2023/06/10 00:57:06;;;;;;;3.17;0.70;;;;;;;17.47;32.76;102396.13;5116909;28;20149;-68
2023/06/10 00:59:32;;;;;;;1.55;0.63;;;;;;;17.45;32.83;102409.13;5115188;28;20031;-68
2023/06/10 01:01:58;;;;;;;4.38;0.70;;;;;;;17.37;32.93;102399.22;5116456;28;20539;-68
2023/06/10 01:04:24;;;;;;;0.95;0.65;;;;;;;17.22;32.77;102384.97;5115782;28;20027;-67
2023/06/10 01:07:19;;;;;;;0.95;0.60;;;;;;;17.17;32.28;102397.50;5121046;28;20020;-68
2023/06/10 01:09:59;;;;;;;1.23;0.60;;;;;;;17.18;32.87;102401.91;5115244;28;20039;-67
2023/06/10 01:12:37;;;;;;;1.00;0.80;;;;;;;17.04;32.73;102395.56;5129737;28;20035;-68
2023/06/10 01:15:03;;;;;;;2.38;0.70;;;;;;;17.06;32.85;102404.38;5127563;28;20028;-68
2023/06/10 01:17:30;;;;;;;2.65;0.70;;;;;;;16.94;32.97;102409.53;5116712;28;20027;-67
2023/06/10 01:19:59;;;;;;;1.30;0.75;;;;;;;16.96;32.51;102412.09;5119862;28;20032;-67
2023/06/10 01:22:28;;;;;;;1.60;0.70;;;;;;;16.91;32.96;102410.78;5120306;27;20063;-67
2023/06/10 01:24:58;;;;;;;1.08;0.55;;;;;;;16.95;32.75;102415.81;5121477;28;20387;-67
2023/06/10 01:27:29;;;;;;;0.82;0.63;;;;;;;16.98;32.97;102416.25;5120473;28;20058;-68
2023/06/10 01:30:03;;;;;;;0.98;0.80;;;;;;;16.96;33.11;102418.34;5119571;28;20587;-76
2023/06/10 01:32:37;;;;;;;2.05;0.60;;;;;;;16.78;33.23;102415.31;5129516;28;20004;-68
2023/06/10 01:35:04;;;;;;;1.20;0.60;;;;;;;16.68;33.18;102418.38;5118458;28;20589;-68
2023/06/10 01:37:30;;;;;;;1.23;0.60;;;;;;;16.73;33.48;102423.22;5117400;28;20399;-73
2023/06/10 01:39:58;;;;;;;1.30;0.63;;;;;;;16.49;33.78;102422.66;5119799;28;20024;-67
2023/06/10 01:42:25;;;;;;;1.02;0.60;;;;;;;16.43;33.73;102418.84;5119011;28;20023;-67
2023/06/10 01:44:51;;;;;;;2.05;0.70;;;;;;;16.57;33.59;102424.38;5101149;28;20027;-68
2023/06/10 01:47:17;;;;;;;0.80;0.60;;;;;;;16.46;33.56;102431.22;5118057;28;20031;-68
2023/06/10 01:49:43;;;;;;;1.02;0.80;;;;;;;16.47;33.87;102434.75;5120171;28;20130;-67
2023/06/10 01:52:08;;;;;;;0.65;0.60;;;;;;;16.34;34.06;102435.50;5117803;28;20492;-68
2023/06/10 01:54:36;;;;;;;1.10;0.60;;;;;;;16.33;34.34;102436.56;5117730;28;20024;-67
2023/06/10 01:57:02;;;;;;;2.28;0.77;;;;;;;16.29;34.08;102444.25;5116703;28;20031;-71
2023/06/10 01:59:27;;;;;;;1.02;0.60;;;;;;;16.26;34.42;102444.66;5116684;28;20027;-68
2023/06/10 02:01:53;;;;;;;0.60;0.57;;;;;;;16.03;34.57;102444.88;5117324;28;20046;-68
2023/06/10 02:04:18;;;;;;;1.45;0.80;;;;;;;15.94;34.73;102433.28;5098127;28;20024;-67
2023/06/10 02:06:45;;;;;;;1.38;0.70;;;;;;;15.85;34.78;102426.31;5097333;28;20039;-67
2023/06/10 02:09:10;;;;;;;0.65;0.65;;;;;;;15.83;34.92;102425.69;5115727;28;20096;-68
2023/06/10 02:11:37;;;;;;;0.98;0.60;;;;;;;15.93;35.32;102442.47;5117313;28;20483;-67
2023/06/10 02:14:03;;;;;;;0.88;0.70;;;;;;;15.85;35.14;102436.34;5117066;28;20032;-67
2023/06/10 02:16:28;;;;;;;2.85;0.70;;;;;;;15.81;35.57;102441.31;5115355;28;20024;-67
2023/06/10 02:18:54;;;;;;;1.15;0.80;;;;;;;15.57;35.58;102436.25;5115494;28;20038;-68
2023/06/10 02:21:20;;;;;;;1.75;0.80;;;;;;;15.34;36.07;102445.38;5114557;28;20389;-72
2023/06/10 02:23:45;;;;;;;0.80;0.60;;;;;;;15.27;36.08;102452.59;5116645;28;20085;-68
2023/06/10 02:26:10;;;;;;;1.75;1.00;;;;;;;15.17;36.33;102444.75;5119076;28;20023;-67
2023/06/10 02:28:36;;;;;;;1.35;0.63;;;;;;;15.11;36.44;102444.66;5118387;28;20024;-67
2023/06/10 02:31:01;;;;;;;1.25;0.70;;;;;;;15.23;36.69;102452.13;5114962;28;20108;-68
2023/06/10 02:33:27;;;;;;;0.77;0.60;;;;;;;15.24;36.73;102445.66;5116687;28;20396;-67
2023/06/10 02:35:52;;;;;;;0.90;0.70;;;;;;;15.19;36.78;102448.09;5115066;28;20027;-67
2023/06/10 02:38:18;;;;;;;1.55;0.70;;;;;;;15.25;36.45;102452.78;5116382;28;20391;-67
2023/06/10 02:40:43;;;;;;;0.98;0.50;;;;;;;15.64;35.79;102456.97;5118842;28;20023;-72
2023/06/10 02:43:09;;;;;;;1.15;0.70;;;;;;;16.09;35.65;102460.38;5128174;28;20031;-68
2023/06/10 02:45:34;;;;;;;1.35;0.70;;;;;;;16.30;35.26;102445.94;5123719;28;20108;-68
2023/06/10 02:48:00;;;;;;;1.08;0.60;;;;;;;16.76;34.70;102463.63;5118378;28;20029;-67
2023/06/10 02:50:25;;;;;;;0.95;0.68;;;;;;;17.01;34.35;102453.09;5117042;28;20028;-67
2023/06/10 02:52:51;;;;;;;2.15;0.70;;;;;;;17.29;34.06;102462.00;5117480;28;20049;-67
2023/06/10 02:55:16;;;;;;;0.55;0.50;;;;;;;17.60;34.02;102458.75;5116929;28;20040;-68
2023/06/10 02:57:42;;;;;;;1.17;0.60;;;;;;;17.87;33.13;102458.84;5115935;28;20031;-67
2023/06/10 03:00:11;;;;;;;4.10;0.70;;;;;;;18.13;33.09;102459.91;5117623;28;20031;-68
2023/06/10 03:02:39;;;;;;;0.70;0.55;;;;;;;18.25;32.79;102461.81;5117369;28;20027;-67
2023/06/10 03:05:09;;;;;;;3.88;0.63;;;;;;;18.57;32.59;102456.53;5119078;28;20102;-67
2023/06/10 03:07:36;;;;;;;1.63;0.60;;;;;;;18.84;32.30;102459.22;5118490;28;20031;-67
2023/06/10 03:10:02;;;;;;;2.05;0.50;;;;;;;19.09;32.03;102462.94;5117266;28;20411;-67
2023/06/10 03:12:28;;;;;;;1.05;0.60;;;;;;;19.42;31.77;102461.94;5114560;28;20061;-68
2023/06/10 03:14:53;;;;;;;0.70;0.60;;;;;;;19.76;31.58;102463.47;5117366;28;20118;-67
2023/06/10 03:17:18;;;;;;;0.60;0.55;;;;;;;20.07;31.10;102464.53;5115436;28;20035;-67
2023/06/10 03:19:44;;;;;;;0.90;0.60;;;;;;;20.17;30.99;102464.84;5117103;28;20077;-68
2023/06/10 03:22:15;;;;;;;0.90;0.65;;;;;;;20.44;30.57;102464.63;5118542;28;20133;-68
2023/06/10 03:24:40;;;;;;;1.23;0.60;;;;;;;20.42;30.40;102473.88;5120536;28;20019;-68
2023/06/10 03:27:13;;;;;;;1.15;0.68;;;;;;;20.38;30.07;102466.34;5120635;28;20188;-68
2023/06/10 03:29:39;;;;;;;0.85;0.70;;;;;;;20.37;29.83;102470.16;5117019;28;20035;-68
2023/06/10 03:32:05;;;;;;;1.58;0.60;;;;;;;20.07;30.74;102459.06;5117772;28;20028;-67
2023/06/10 03:34:30;;;;;;;1.00;0.50;;;;;;;20.04;30.49;102464.97;5116933;28;20565;-67
2023/06/10 03:36:57;;;;;;;0.95;0.45;;;;;;;19.66;30.73;102477.59;5117001;28;20035;-67
2023/06/10 03:39:23;;;;;;;0.80;0.57;;;;;;;19.51;31.11;102463.38;5117624;28;20028;-67
2023/06/10 03:41:49;;;;;;;1.48;0.65;;;;;;;19.18;31.37;102461.63;5117956;28;20106;-67
2023/06/10 03:44:15;;;;;;;1.52;0.47;;;;;;;19.28;31.54;102474.00;5116408;28;20065;-67
2023/06/10 03:46:40;;;;;;;1.10;0.57;;;;;;;19.48;31.08;102448.25;5118249;28;20015;-67
2023/06/10 03:49:06;;;;;;;0.73;0.40;;;;;;;19.92;30.75;102475.75;5116493;28;20031;-68
2023/06/10 03:51:31;;;;;;;0.95;0.50;;;;;;;20.17;30.36;102462.97;5116837;28;20031;-70
2023/06/10 03:53:57;;;;;;;0.68;0.30;;;;;;;20.74;29.91;102481.19;5122369;28;20050;-68
2023/06/10 03:56:22;;;;;;;0.63;0.47;;;;;;;20.80;29.87;102492.06;5118931;28;20047;-68
2023/06/10 03:58:47;;;;;;;1.42;0.40;;;;;;;21.17;29.52;102480.28;5103722;28;20038;-68
2023/06/10 04:01:13;;;;;;;1.33;0.45;;;;;;;21.09;29.25;102452.16;5124824;28;20568;-68
2023/06/10 04:03:41;;;;;;;0.52;0.40;;;;;;;21.27;29.35;102486.06;5117196;28;20066;-68
2023/06/10 04:06:07;;;;;;;1.08;0.60;;;;;;;21.58;29.11;102480.38;5116351;28;20073;-68
2023/06/10 04:08:32;;;;;;;0.50;0.43;;;;;;;21.55;29.13;102488.25;5117662;28;20032;-68
2023/06/10 04:10:58;;;;;;;0.70;0.40;;;;;;;21.59;29.11;102481.25;5115202;28;20031;-67
2023/06/10 04:13:24;;;;;;;0.47;0.40;;;;;;;21.77;28.92;102483.09;5115743;28;20119;-67
2023/06/10 04:15:49;;;;;;;0.22;0.20;;;;;;;21.94;28.79;102486.81;5116953;28;20016;-67
2023/06/10 04:18:15;;;;;;;0.77;0.40;;;;;;;22.07;28.56;102476.72;5117486;28;20030;-67
2023/06/10 04:20:41;;;;;;;0.52;0.20;;;;;;;22.20;28.60;102495.75;5117506;28;20415;-67
2023/06/10 04:23:07;;;;;;;0.68;0.50;;;;;;;22.02;28.89;102494.72;5117636;28;20078;-68
2023/06/10 04:25:32;;;;;;;1.08;0.30;;;;;;;21.25;29.51;102499.13;5115832;28;20038;-67
2023/06/10 04:27:58;;;;;;;0.98;0.50;;;;;;;21.18;30.14;102501.94;5115611;28;20034;-67
2023/06/10 04:30:23;;;;;;;1.15;0.50;;;;;;;20.50;30.53;102453.63;5098386;28;20028;-67
2023/06/10 04:32:48;;;;;;;0.55;0.40;;;;;;;21.41;30.12;102504.00;5098755;28;20058;-67
2023/06/10 04:35:15;;;;;;;0.73;0.50;;;;;;;21.56;29.84;102501.72;5115305;28;20047;-67
2023/06/10 04:37:41;;;;;;;1.35;0.40;;;;;;;22.09;29.37;102504.75;5116626;28;20102;-68
2023/06/10 04:40:08;;;;;;;0.30;0.30;;;;;;;21.90;29.04;102451.91;5116884;28;20420;-67
2023/06/10 04:42:34;;;;;;;0.25;0.25;;;;;;;22.20;29.47;102487.50;5113725;28;20503;-68
2023/06/10 04:44:59;;;;;;;0.38;0.30;;;;;;;22.47;29.09;102507.09;5114780;28;20027;-68
2023/06/10 04:47:26;;;;;;;0.50;0.30;;;;;;;22.01;29.63;102512.22;5117088;28;20069;-68
2023/06/10 04:49:52;;;;;;;0.73;0.35;;;;;;;21.52;30.30;102510.59;5117738;28;20444;-70
2023/06/10 04:52:17;;;;;;;0.95;0.40;;;;;;;21.18;30.80;102510.16;5115304;28;20031;-68
2023/06/10 04:54:43;;;;;;;0.73;0.30;;;;;;;21.41;30.60;102503.19;5115810;28;20052;-67
2023/06/10 04:57:10;;;;;;;0.75;0.40;;;;;;;20.72;31.36;102508.75;5117291;28;20032;-68
2023/06/10 04:59:37;;;;;;;0.85;0.40;;;;;;;20.77;31.43;102516.31;5115142;28;20030;-68
2023/06/10 05:02:04;;;;;;;0.73;0.40;;;;;;;20.68;31.43;102503.97;5121896;28;20080;-68
2023/06/10 05:04:30;;;;;;;1.27;0.43;;;;;;;20.42;32.06;102512.16;5117925;28;20098;-67
2023/06/10 05:06:56;;;;;;;0.60;0.30;;;;;;;19.83;32.71;102516.16;5116554;28;20568;-67
2023/06/10 05:09:21;;;;;;;0.30;0.30;;;;;;;20.29;32.36;102519.63;5115278;28;20032;-68
2023/06/10 05:11:47;;;;;;;0.80;0.40;;;;;;;19.89;32.73;102519.91;5115224;28;20095;-67
2023/06/10 05:14:12;;;;;;;2.30;0.45;;;;;;;20.27;32.11;102514.41;5114927;28;20032;-67
2023/06/10 05:16:38;;;;;;;0.82;0.43;;;;;;;20.59;31.73;102522.56;5115601;28;20035;-67
2023/06/10 05:19:04;;;;;;;0.85;0.38;;;;;;;20.62;32.12;102517.47;5116627;28;20039;-67
2023/06/10 05:21:30;;;;;;;0.73;0.30;;;;;;;20.50;31.96;102516.53;5116453;28;20054;-68
2023/06/10 05:23:55;;;;;;;0.40;0.30;;;;;;;20.41;32.46;102515.94;5116547;28;20016;-68
2023/06/10 05:26:21;;;;;;;1.15;0.30;;;;;;;20.02;32.63;102521.72;5116541;28;20019;-68
2023/06/10 05:28:47;;;;;;;0.60;0.30;;;;;;;19.53;33.37;102513.13;5116658;28;20031;-67
2023/06/10 05:31:12;;;;;;;1.05;0.32;;;;;;;19.76;32.86;102504.44;5092033;28;20061;-68
2023/06/10 05:33:38;;;;;;;2.50;0.22;;;;;;;19.89;32.66;102522.63;5127639;28;20032;-68
2023/06/10 05:36:04;;;;;;;0.38;0.30;;;;;;;19.78;32.80;102515.16;5117244;28;20031;-67
2023/06/10 05:38:30;;;;;;;0.63;0.32;;;;;;;20.08;32.69;102515.38;5098164;28;20035;-68
2023/06/10 05:40:56;;;;;;;0.60;0.40;;;;;;;19.55;33.11;102512.94;5114892;28;20074;-68
2023/06/10 05:43:22;;;;;;;0.75;0.30;;;;;;;19.40;33.26;102508.59;5082070;28;20019;-68
2023/06/10 05:45:48;;;;;;;1.30;0.40;;;;;;;18.95;33.79;102497.59;5098086;28;20030;-68
2023/06/10 05:48:13;;;;;;;0.68;0.40;;;;;;;18.82;34.11;102508.53;5116365;28;20124;-68
2023/06/10 05:50:42;;;;;;;0.98;0.40;;;;;;;19.30;33.56;102510.06;5115393;28;20480;-67
2023/06/10 05:53:14;;;;;;;2.90;0.38;;;;;;;19.05;33.80;102518.16;5116518;28;20479;-68
2023/06/10 05:55:41;;;;;;;0.80;0.40;;;;;;;18.80;33.97;102512.53;5117436;28;20107;-68
2023/06/10 05:58:07;;;;;;;1.30;0.40;;;;;;;18.82;33.72;102515.91;5101809;28;20022;-68
2023/06/10 06:00:32;;;;;;;1.08;0.30;;;;;;;19.05;33.85;102504.50;5101717;28;20027;-68
2023/06/10 06:02:58;;;;;;;1.10;0.30;;;;;;;18.70;34.31;102521.09;5101104;28;20027;-68
2023/06/10 06:05:24;;;;;;;0.43;0.30;;;;;;;18.67;34.22;102518.81;5118224;28;20043;-67
2023/06/10 06:07:50;;;;;;;1.25;0.30;;;;;;;18.90;34.17;102530.13;5119754;27;20145;-67
2023/06/10 06:10:17;;;;;;;0.38;0.25;;;;;;;19.02;34.26;102524.88;5119663;28;20083;-69
2023/06/10 06:12:43;;;;;;;0.63;0.30;;;;;;;19.08;34.31;102518.56;5115687;28;20436;-69
2023/06/10 06:15:10;;;;;;;1.30;0.30;;;;;;;18.82;34.79;102526.81;5117174;28;20036;-68
2023/06/10 06:17:35;;;;;;;2.17;0.32;;;;;;;19.10;34.41;102521.06;5120262;28;20077;-69
2023/06/10 06:20:01;;;;;;;0.25;0.20;;;;;;;19.66;33.83;102523.19;5120006;28;20047;-68
2023/06/10 06:22:27;;;;;;;0.30;0.30;;;;;;;19.87;33.73;102519.31;5120118;28;20134;-68
2023/06/10 06:24:52;;;;;;;0.47;0.30;;;;;;;20.18;33.34;102504.78;5119840;28;20064;-68
2023/06/10 06:27:17;;;;;;;1.27;0.22;;;;;;;20.05;33.48;102524.00;5102559;28;20019;-68
2023/06/10 06:29:43;;;;;;;1.02;0.30;;;;;;;19.99;33.45;102516.69;5120913;28;20548;-68
2023/06/10 06:32:08;;;;;;;0.93;0.20;;;;;;;19.92;33.76;102528.50;5100149;28;20400;-67
2023/06/10 06:34:34;;;;;;;1.25;0.30;;;;;;;19.83;33.56;102521.59;5117979;28;20476;-67
2023/06/10 06:36:59;;;;;;;0.85;0.40;;;;;;;19.98;33.52;102525.97;5117797;28;20379;-68
2023/06/10 06:39:25;;;;;;;0.70;0.30;;;;;;;19.68;33.91;102535.56;5118978;28;20036;-66
2023/06/10 06:41:51;;;;;;;1.10;0.40;;;;;;;20.15;33.49;102533.41;5100678;28;20053;-68
2023/06/10 06:44:16;;;;;;;0.90;0.30;;;;;;;20.64;33.18;102529.03;5119190;28;20123;-67
2023/06/10 06:46:41;;;;;;;0.30;0.30;;;;;;;21.08;32.30;102509.84;5117062;28;20038;-64
2023/06/10 06:49:07;;;;;;;0.75;0.40;;;;;;;21.39;32.26;102525.34;5116847;28;20082;-68
2023/06/10 06:51:32;;;;;;;1.95;0.22;;;;;;;21.02;32.76;102536.22;5119101;28;20047;-68
2023/06/10 06:53:58;;;;;;;2.95;0.30;;;;;;;21.58;32.37;102532.44;5117571;28;20038;-70
2023/06/10 06:56:26;;;;;;;1.02;0.40;;;;;;;21.02;32.48;102527.19;5102681;28;20032;-68
2023/06/10 06:58:51;;;;;;;1.85;0.30;;;;;;;21.47;32.29;102526.91;5117687;28;20413;-68
2023/06/10 07:01:17;;;;;;;0.95;0.30;;;;;;;21.16;32.31;102514.19;5118489;28;20160;-67
2023/06/10 07:03:42;;;;;;;0.35;0.20;;;;;;;20.71;33.18;102520.78;5116804;28;20028;-67
2023/06/10 07:06:07;;;;;;;0.50;0.30;;;;;;;20.86;32.82;102524.00;5118320;28;20043;-66
2023/06/10 07:08:33;;;;;;;1.95;0.40;;;;;;;20.99;32.58;102531.25;5117209;28;20118;-66
2023/06/10 07:10:58;;;;;;;1.13;0.32;;;;;;;20.86;32.94;102515.78;5118399;28;20060;-67
2023/06/10 07:13:24;;;;;;;0.50;0.30;;;;;;;21.21;32.31;102522.56;5117814;28;20035;-66
2023/06/10 07:15:49;;;;;;;0.30;0.28;;;;;;;20.59;33.01;102520.66;5122617;28;20392;-66
2023/06/10 07:18:17;;;;;;;0.65;0.30;;;;;;;20.76;33.00;102531.03;5119137;28;20023;-67
2023/06/10 07:20:42;;;;;;;2.45;0.40;;;;;;;21.34;32.59;102528.75;5116485;28;20124;-66
2023/06/10 07:23:08;;;;;;;0.20;0.20;;;;;;;21.41;32.16;102525.09;5117792;28;20380;-66
2023/06/10 07:25:33;;;;;;;1.08;0.40;;;;;;;21.66;31.83;102531.31;5119587;28;20372;-66
2023/06/10 07:27:59;;;;;;;0.32;0.30;;;;;;;21.25;32.01;102530.06;5117931;28;20035;-65
2023/06/10 07:30:24;;;;;;;0.73;0.35;;;;;;;21.06;32.21;102537.47;5116979;28;20069;-66
2023/06/10 07:32:51;;;;;;;0.60;0.30;;;;;;;21.31;32.34;102531.91;5116497;28;20043;-66
2023/06/10 07:35:17;;;;;;;0.40;0.38;;;;;;;21.40;32.09;102537.94;5113673;28;20035;-67
2023/06/10 07:37:42;;;;;;;0.60;0.35;;;;;;;22.01;31.37;102528.66;5116667;28;20035;-66
2023/06/10 07:40:08;;;;;;;1.38;0.30;;;;;;;21.90;30.80;102523.16;5119073;28;20066;-66
2023/06/10 07:42:37;;;;;;;0.63;0.30;;;;;;;22.19;30.64;102532.47;5117753;28;20027;-70
2023/06/10 07:45:04;;;;;;;2.10;0.50;;;;;;;21.98;30.56;102526.41;5119271;28;20024;-67
2023/06/10 07:47:30;;;;;;;1.45;0.40;;;;;;;22.49;30.10;102525.00;5117993;28;20026;-66
2023/06/10 07:49:56;;;;;;;1.05;0.40;;;;;;;22.41;30.31;102532.72;5118076;28;20026;-67
2023/06/10 07:52:21;;;;;;;0.90;0.50;;;;;;;22.61;29.97;102515.94;5115625;28;20027;-66
2023/06/10 07:54:47;;;;;;;1.75;0.40;;;;;;;22.71;29.67;102500.56;5116181;28;20031;-66
2023/06/10 07:57:12;;;;;;;0.55;0.30;;;;;;;22.50;30.17;102518.44;5119820;28;20054;-65
2023/06/10 07:59:38;;;;;;;1.85;0.50;;;;;;;22.73;29.54;102523.09;5118109;28;20598;-66
2023/06/10 08:02:04;;;;;;;1.30;0.50;;;;;;;23.10;28.90;102516.53;5116856;28;20061;-66
2023/06/10 08:04:30;;;;;;;3.35;0.50;;;;;;;22.68;29.40;102514.75;5116623;28;20412;-66
2023/06/10 08:06:56;;;;;;;0.40;0.35;;;;;;;23.29;28.76;102515.28;5116344;28;20034;-66
2023/06/10 08:09:23;;;;;;;1.30;0.68;;;;;;;23.60;28.29;102515.91;5115713;28;20028;-66
2023/06/10 08:11:49;;;;;;;2.25;0.40;;;;;;;23.44;28.56;102507.38;5117486;28;20031;-66
2023/06/10 08:14:16;;;;;;;0.95;0.63;;;;;;;22.75;28.96;102514.63;5117131;28;20051;-67
2023/06/10 08:16:41;;;;;;;1.48;0.68;;;;;;;22.97;27.93;102501.13;5116462;28;20028;-66
2023/06/10 08:19:09;;;;;;;0.57;0.40;;;;;;;23.19;28.03;102510.41;5115749;28;20024;-66
2023/06/10 08:21:34;;;;;;;1.08;0.60;;;;;;;23.38;27.93;102513.00;5117053;28;20202;-73
2023/06/10 08:24:00;;;;;;;1.17;0.60;;;;;;;23.72;27.60;102524.97;5123566;28;20024;-68
2023/06/10 08:26:25;;;;;;;1.25;0.50;;;;;;;23.79;27.33;102524.81;5115355;28;20031;-66
2023/06/10 08:28:51;;;;;;;1.77;0.50;;;;;;;23.80;27.60;102519.06;5115506;28;20046;-66
2023/06/10 08:31:17;;;;;;;0.90;0.55;;;;;;;23.15;28.49;102528.47;5115809;28;20113;-67
2023/06/10 08:33:42;;;;;;;0.93;0.50;;;;;;;22.81;28.59;102510.91;5116159;28;20032;-66
2023/06/10 08:36:08;;;;;;;0.45;0.40;;;;;;;22.63;28.35;102522.84;5115844;28;20037;-66
2023/06/10 08:38:34;;;;;;;1.23;0.60;;;;;;;23.10;27.69;102522.84;5114969;28;20031;-67
2023/06/10 08:41:00;;;;;;;1.08;0.60;;;;;;;23.15;28.04;102513.91;5112692;28;20062;-66
2023/06/10 08:43:54;;;;;;;1.95;0.55;;;;;;;23.00;27.93;102521.78;5116262;28;20419;-67
2023/06/10 08:46:20;;;;;;;1.30;0.90;;;;;;;23.49;27.54;102516.78;5116022;28;20047;-67
2023/06/10 08:48:48;;;;;;;1.55;0.60;;;;;;;23.29;27.87;102520.78;5117395;28;20047;-66
2023/06/10 08:51:17;;;;;;;0.80;0.50;;;;;;;23.17;27.81;102511.72;5116878;28;20038;-66
2023/06/10 08:53:53;;;;;;;1.00;0.63;;;;;;;23.12;27.69;102508.88;5114599;28;20155;-66
2023/06/10 08:56:20;;;;;;;0.88;0.60;;;;;;;23.15;28.22;102509.25;5115238;28;20028;-67
2023/06/10 08:58:46;;;;;;;0.73;0.60;;;;;;;22.96;28.04;102519.53;5114666;28;20028;-67
2023/06/10 09:01:12;;;;;;;0.80;0.55;;;;;;;23.42;27.61;102504.03;5112986;28;20485;-66
2023/06/10 09:03:39;;;;;;;1.88;0.73;;;;;;;23.34;26.78;102506.31;5098419;28;20035;-67
2023/06/10 09:06:05;;;;;;;0.68;0.52;;;;;;;22.73;27.66;102505.78;5116838;28;20027;-67
2023/06/10 09:08:33;;;;;;;1.58;0.70;;;;;;;22.84;27.37;102507.69;5116881;28;20030;-67
2023/06/10 09:10:58;;;;;;;1.35;0.73;;;;;;;23.14;27.29;102509.47;5116653;28;20034;-67
2023/06/10 09:13:24;;;;;;;1.30;0.60;;;;;;;23.61;27.28;102509.34;5114988;28;20134;-67
2023/06/10 09:15:51;;;;;;;1.20;0.57;;;;;;;23.71;26.93;102479.34;5117301;28;20028;-67
2023/06/10 09:18:17;;;;;;;0.70;0.50;;;;;;;23.72;27.27;102499.41;5116501;28;20096;-67
2023/06/10 09:20:43;;;;;;;3.25;0.60;;;;;;;23.76;27.71;102487.66;5116363;28;20052;-67
2023/06/10 09:23:09;;;;;;;1.38;0.70;;;;;;;23.32;27.37;102459.88;5097985;28;20080;-66
2023/06/10 09:25:38;;;;;;;1.30;0.65;;;;;;;23.15;27.46;102480.94;5098044;28;20080;-67
2023/06/10 09:28:04;;;;;;;1.08;0.55;;;;;;;22.89;27.72;102485.03;5115882;28;20032;-67
2023/06/10 09:30:34;;;;;;;0.75;0.57;;;;;;;22.90;27.49;102490.25;5117360;28;20027;-66
2023/06/10 09:33:02;;;;;;;1.10;0.60;;;;;;;23.49;26.96;102489.31;5126533;27;20038;-67
2023/06/10 09:35:30;;;;;;;0.75;0.55;;;;;;;23.53;26.90;102485.81;5120962;28;20024;-67
2023/06/10 09:37:57;;;;;;;1.35;0.52;;;;;;;23.00;26.73;102486.09;5117822;28;20030;-67
2023/06/10 09:40:23;;;;;;;2.38;0.63;;;;;;;23.12;27.02;102485.00;5099689;28;20689;-66
2023/06/10 09:42:54;;;;;;;1.23;0.57;;;;;;;23.26;27.06;102481.97;5117641;28;20023;-67
2023/06/10 09:45:21;;;;;;;1.45;0.73;;;;;;;23.13;27.31;102483.09;5100570;28;20153;-66
2023/06/10 09:47:55;;;;;;;1.15;0.60;;;;;;;23.41;27.00;102482.28;5116199;28;20031;-66
2023/06/10 09:50:21;;;;;;;1.80;0.70;;;;;;;23.58;27.08;102479.59;5115688;28;20077;-66
2023/06/10 09:52:50;;;;;;;1.40;0.60;;;;;;;23.80;26.63;102455.84;5118340;28;20032;-66
2023/06/10 09:55:17;;;;;;;1.60;0.93;;;;;;;23.68;27.32;102455.09;5118644;28;20088;-67
2023/06/10 09:57:47;;;;;;;0.80;0.60;;;;;;;23.51;26.62;102462.41;5118436;28;20053;-67
2023/06/10 10:00:13;;;;;;;1.15;0.73;;;;;;;23.63;26.49;102472.28;5120072;28;20031;-66
2023/06/10 10:02:50;;;;;;;1.10;0.80;;;;;;;24.28;26.30;102467.38;5119659;28;20152;-67
2023/06/10 10:05:17;;;;;;;1.13;0.68;;;;;;;24.72;25.74;102465.59;5118479;28;20019;-66
2023/06/10 10:07:44;;;;;;;1.75;0.85;;;;;;;25.03;25.62;102457.72;5119569;28;20028;-67
2023/06/10 10:10:17;;;;;;;1.52;0.60;;;;;;;24.44;25.54;102471.25;5119707;28;20015;-67
2023/06/10 10:12:45;;;;;;;2.40;0.80;;;;;;;24.16;25.30;102475.69;5118255;28;20026;-66
2023/06/10 10:15:11;;;;;;;1.30;0.80;;;;;;;24.56;25.20;102471.94;5118265;28;20035;-67
2023/06/10 10:17:44;;;;;;;1.02;0.80;;;;;;;24.45;24.53;102476.47;5117981;28;20088;-66
2023/06/10 10:20:14;;;;;;;0.60;0.60;;;;;;;24.05;24.22;102463.72;5119394;28;20035;-66
2023/06/10 10:22:42;;;;;;;2.15;0.77;;;;;;;23.63;24.70;102463.19;5116130;28;20477;-67
2023/06/10 10:25:15;;;;;;;2.35;0.80;;;;;;;23.89;24.70;102459.84;5116776;28;20019;-67
2023/06/10 10:28:06;;;;;;;1.13;0.60;;;;;;;24.00;24.58;102452.59;5119455;28;20095;-68
2023/06/10 10:30:39;;;;;;;1.75;1.00;;;;;;;24.28;24.83;102459.13;5117472;28;20024;-67
2023/06/10 10:33:09;;;;;;;1.02;0.70;;;;;;;24.26;25.39;102481.38;5119385;28;20023;-66
2023/06/10 10:35:36;;;;;;;1.40;0.80;;;;;;;24.36;24.31;102472.44;5119423;28;20046;-67
2023/06/10 10:38:02;;;;;;;1.00;0.90;;;;;;;24.09;23.89;102464.88;5117392;28;20053;-65
2023/06/10 10:40:29;;;;;;;1.00;0.80;;;;;;;25.06;23.82;102457.22;5117783;28;20031;-66
2023/06/10 10:42:56;;;;;;;1.52;0.85;;;;;;;25.46;23.36;102443.13;5123666;28;20023;-66
2023/06/10 10:45:22;;;;;;;2.33;0.90;;;;;;;25.18;23.44;102460.69;5119118;28;20122;-66
2023/06/10 10:47:52;;;;;;;0.90;0.60;;;;;;;25.36;22.72;102456.75;5118721;28;20024;-67
2023/06/10 10:50:20;;;;;;;1.83;0.80;;;;;;;24.93;23.29;102460.34;5117560;28;20019;-67
2023/06/10 10:52:55;;;;;;;0.90;0.70;;;;;;;25.19;22.98;102450.50;5117655;28;20034;-66
2023/06/10 10:55:22;;;;;;;1.70;0.93;;;;;;;25.69;23.09;102455.72;5118995;28;20020;-67
2023/06/10 10:58:05;;;;;;;1.38;0.82;;;;;;;24.87;22.27;102398.88;5119443;28;20031;-67
2023/06/10 11:00:43;;;;;;;2.13;0.88;;;;;;;24.81;23.55;102450.28;5118619;28;20032;-67
2023/06/10 11:03:13;;;;;;;1.92;0.80;;;;;;;25.18;23.56;102444.16;5118629;28;20114;-67
2023/06/10 11:05:40;;;;;;;1.67;1.10;;;;;;;25.45;22.68;102457.97;5118491;27;20395;-66
2023/06/10 11:08:07;;;;;;;3.50;0.80;;;;;;;25.52;22.43;102446.75;5118994;28;20062;-66
2023/06/10 11:10:35;;;;;;;1.13;0.93;;;;;;;25.35;23.00;102451.53;5116803;28;20084;-68
2023/06/10 11:13:09;;;;;;;1.50;0.93;;;;;;;25.61;22.61;102447.94;5116845;28;20054;-67
2023/06/10 11:15:48;;;;;;;1.20;0.80;;;;;;;25.89;22.92;102448.78;5117672;28;20050;-67
2023/06/10 11:18:26;;;;;;;2.50;0.95;;;;;;;25.74;22.89;102438.41;5116844;28;20051;-67
2023/06/10 11:20:55;;;;;;;2.88;0.80;;;;;;;25.16;23.18;102428.97;5117968;28;20445;-66
2023/06/10 11:23:32;;;;;;;1.10;1.00;;;;;;;25.30;23.47;102433.03;5117603;28;20084;-67